createdAt,value
2018-05-03T16:59:51.741Z,22.3
2018-05-03T17:09:50.705Z,22.9
2018-05-03T17:19:49.996Z,23.2
2018-05-03T17:29:49.824Z,23.3
2018-05-03T17:39:48.347Z,23.4
2018-05-03T17:49:48.406Z,23.3
2018-05-03T17:59:47.681Z,23.3
2018-05-03T18:09:46.588Z,23.3
2018-05-03T18:19:45.567Z,23.3
2018-05-03T18:29:44.869Z,23.3
2018-05-03T18:39:44.460Z,23.2
2018-05-03T18:49:43.330Z,23.1
2018-05-03T18:59:42.785Z,23.1
2018-05-03T19:09:42.396Z,23.1
2018-05-03T19:19:40.968Z,23.1
2018-05-03T19:29:40.341Z,23
2018-05-03T19:39:39.800Z,23
2018-05-03T19:49:38.737Z,22.9
2018-05-03T19:59:37.600Z,22.9
2018-05-03T20:09:37.011Z,22.9
2018-05-03T20:19:36.051Z,22.8
2018-05-03T20:29:35.344Z,22.8
2018-05-03T20:39:35.199Z,22.7
2018-05-03T20:49:33.680Z,22.8
2018-05-03T20:59:33.090Z,22.8
2018-05-03T21:09:32.346Z,22.8
2018-05-03T21:19:31.460Z,22.8
2018-05-03T21:29:30.837Z,22.8
2018-05-03T21:39:29.784Z,22.8
2018-05-03T21:49:28.956Z,22.8
2018-05-03T21:59:28.163Z,22.8
2018-05-03T22:09:27.660Z,22.8
2018-05-03T22:19:26.771Z,22.8
2018-05-03T22:29:25.801Z,22.7
2018-05-03T22:39:26.338Z,22.7
2018-05-03T22:49:24.396Z,22.7
2018-05-03T22:59:24.062Z,22.7
2018-05-03T23:09:22.981Z,22.7
2018-05-03T23:19:22.245Z,22.7
2018-05-03T23:29:22.794Z,22.7
2018-05-03T23:39:20.663Z,22.6
2018-05-03T23:49:20.006Z,22.6
2018-05-03T23:59:19.212Z,22.6
